Terminal Aerodrome Forecast
Issued by NWS Charleston, WV

Current Version | Previous Version | Graphics & Text | Print | Product List | Glossary On
Versions: 1 2 3 4 5 6 7 8 9 10 11 12 13 14 15 16 17 18 19 20 21 22 23 24 25 26
000
FTUS41 KRLX 251500 AAA
TAFHTS
TAF AMD
KHTS 251520Z 2515/2612 19005KT P6SM BKN150
     FM260000 18004KT 6SM -RA OVC050
     FM260400 16004KT 5SM -RA BR OVC025
     FM260600 00000KT 2SM -RA BR OVC010
     FM261100 35004KT 1SM -RASN BR OVC004=

USA.gov is the U.S. government's official web portal to all federal, state and local government web resources and services.